DRZA/AJY METAR and TAF weather

Enter ICAO airport designator
Station Type Date Time Source
DRZA METAR 2020/11/26 18:00 UTC NOAA

DRZA 261800Z 10012KT CAVOK 25/M00 Q1014


Station Type Date Time Source
DRZA Decoded METAR 2020/11/26 18:00 UTC NOAA

Agadez, Niger (DRZA) 16-58N 007-59E 502M
Nov 26, 2020 - 01:00 PM EST / 2020.11.26 1800 UTC
Wind: from the E (100 degrees) at 14 MPH (12 KT):0
Visibility: greater than 7 mile(s):0
Temperature: 77 F (25 C)
Dew Point: 32 F (0 C)
Relative Humidity: 19%
Pressure (altimeter): 29.94 in. Hg (1014 hPa)
ob: DRZA 261800Z 10012KT CAVOK 25/M00 Q1014
cycle: 18

Station Type Date Time Source
DRZA TAF 2020/11/26 18:21 UTC NOAA

TAF DRZA 261700Z 2618/2718 10010KT CAVOK
TEMPO 2709/2713 12022KT 4500 BLDU

Example: see airport list